Flight Track Log - Related Links

Times and Time Zones

All times are in EDT time to prevent confusion due to time zone crossing. See the N901QS flight status page for this flight to view local times or setup timezone preferences in your user account.

Time Position Orientation Groundspeed Altitude Reporting Facility
EDT Latitude Longitude Course Direction KTS MPH feet Rate Location/Type
Wed 02:19:58 PM 21.7675 -72.2142 307° West 506 582 3,100  Level Miami Center
Wed 02:20:58 PM 21.7717 -72.1469 86° East 347 399 5,900 1,450 Climbing Miami Center
Wed 02:21:58 PM 21.7756 -72.0686 87° East 299 344 6,000 1,150 Climbing Miami Center
Wed 02:22:58 PM 21.8442 -72.0594 North 189 217 8,200 2,000 Climbing Miami Center
Wed 02:23:58 PM 21.8944 -72.1358 305° West 184 212 10,000 1,400 Climbing Miami Center
Wed 02:24:58 PM 21.9514 -72.2233 305° West 279 321 11,000 1,300 Climbing Miami Center
Wed 02:25:00 PM 22.2189 -72.9349 307° West  Level FlightAware Approximate
Wed 02:25:58 PM 22.0106 -72.3153 305° West 328 377 12,600  Level Miami Center
Wed 02:26:58 PM 22.0675 -72.4097 303° West 366 421 14,000 1,350 Climbing Miami Center
Wed 02:27:58 PM 22.1286 -72.5017 306° West 378 435 15,300 1,250 Climbing Miami Center
Wed 02:28:58 PM 22.1897 -72.5983 304° West 384 442 16,500 1,250 Climbing Miami Center
Wed 02:29:58 PM 22.2508 -72.6928 305° West 389 448 17,800 1,100 Climbing Miami Center
Wed 02:30:58 PM 22.3161 -72.7894 306° West 389 448 18,700 900 Climbing Miami Center
Wed 02:31:58 PM 22.3794 -72.8906 304° West 400 460 19,600 1,000 Climbing Miami Center
Wed 02:32:58 PM 22.4425 -72.9922 304° West 406 467 20,700 1,000 Climbing Miami Center
Wed 02:33:58 PM 22.5078 -73.0981 304° West 416 479 21,600 850 Climbing Miami Center
Wed 02:34:58 PM 22.5750 -73.1928 308° West 411 473 22,400 950 Climbing Miami Center
Wed 02:35:58 PM 22.6422 -73.2989 304° West 416 479 23,500 950 Climbing Miami Center
Wed 02:36:58 PM 22.7156 -73.4050 307° West 422 486 24,300 800 Climbing Miami Center
Wed 02:37:58 PM 22.7767 -73.5136 301° West 427 491 25,100 800 Climbing Miami Center
Wed 02:38:58 PM 22.8458 -73.6244 304° West 440 506 25,900 800 Climbing Miami Center
Wed 02:39:58 PM 22.9192 -73.7353 306° West 440 506 26,700 850 Climbing Miami Center
Wed 02:40:58 PM 22.9903 -73.8419 306° West 440 506 27,600 850 Climbing Miami Center
Wed 02:41:58 PM 23.0572 -73.9533 303° West 440 506 28,400 850 Climbing Miami Center
Wed 02:42:58 PM 23.1306 -74.0644 306° West 440 506 29,300 900 Climbing Miami Center
Wed 02:43:58 PM 23.2014 -74.1783 304° West 446 513 30,200 900 Climbing Miami Center
Wed 02:44:58 PM 23.2722 -74.2897 305° West 446 513 31,100 900 Climbing Miami Center
Wed 02:45:58 PM 23.3453 -74.4061 304° West 456 525 32,000 1,000 Climbing Miami Center
Wed 02:46:58 PM 23.4161 -74.5200 304° West 456 525 33,100 1,250 Climbing Miami Center
Wed 02:47:58 PM 23.4889 -74.6342 305° West 461 531 34,500 1,500 Climbing Miami Center
Wed 02:48:58 PM 23.5594 -74.7486 304° West 461 531 36,100 1,800 Climbing Miami Center
Wed 02:49:58 PM 23.6258 -74.8586 303° West 456 525 38,100 1,800 Climbing Miami Center
Wed 02:50:58 PM 23.6919 -74.9619 305° West 443 510 39,700 950 Climbing Miami Center
Wed 02:51:58 PM 23.7600 -75.0700 305° West 431 496 40,000 150 Climbing Miami Center
Wed 02:52:58 PM 23.8261 -75.1825 303° West 437 503 40,000  Level Miami Center
Wed 02:53:58 PM 23.8986 -75.2997 304° West 449 517 40,000  Level Miami Center
Wed 02:54:58 PM 23.9686 -75.4147 304° West 449 517 40,000  Level Miami Center
Wed 02:55:58 PM 24.0386 -75.5300 304° West 449 517 40,000  Level Miami Center
Wed 02:56:58 PM 24.1108 -75.6478 304° West 454 522 40,000  Level Miami Center
Wed 02:57:58 PM 24.1806 -75.7631 304° West 454 522 40,000  Level Miami Center
Wed 02:58:58 PM 24.2503 -75.8789 303° West 454 522 40,000  Level Miami Center
Wed 02:59:58 PM 24.3181 -75.9944 303° West 454 522 40,000  Level Miami Center
Wed 03:00:58 PM 24.3875 -76.1081 304° West 454 522 40,000  Level Miami Center
Wed 03:01:58 PM 24.4592 -76.2242 304° West 454 522 40,000  Level Miami Center
Wed 03:02:58 PM 24.5264 -76.3403 302° West 454 522 40,000  Level Miami Center
Wed 03:03:58 PM 24.5939 -76.4567 303° West 454 522 40,000  Level Miami Center
Wed 03:04:58 PM 24.6650 -76.5731 304° West 454 522 40,000  Level Miami Center
Wed 03:05:58 PM 24.7342 -76.6917 303° West 454 522 40,000  Level Miami Center
Wed 03:06:58 PM 24.8011 -76.8061 303° West 454 522 40,000  Level Miami Center
Wed 03:07:58 PM 24.8722 -76.9231 304° West 454 522 40,000  Level Miami Center
Wed 03:08:58 PM 24.9433 -77.0400 304° West 454 522 40,000  Level Miami Center
Wed 03:09:58 PM 25.0100 -77.1547 303° West 454 522 40,000  Level Miami Center
Wed 03:10:58 PM 25.0808 -77.2717 304° West 454 522 40,000  Level Miami Center
Wed 03:11:58 PM 25.1536 -77.3939 303° West 466 536 40,000  Level Miami Center
Wed 03:12:58 PM 25.2242 -77.5158 303° West 471 542 40,000  Level Miami Center
Wed 03:13:58 PM 25.2883 -77.6333 301° West 471 542 40,000  Level Miami Center
Wed 03:14:58 PM 25.3567 -77.7511 303° West 465 535 40,000  Level Miami Center
Wed 03:15:58 PM 25.4247 -77.8689 303° West 465 535 40,000  Level Miami Center
Wed 03:16:58 PM 25.4950 -77.9869 303° West 460 529 40,000  Level Miami Center
Wed 03:17:58 PM 25.5631 -78.1075 302° West 460 529 40,000  Level Miami Center
Wed 03:18:58 PM 25.6308 -78.2256 303° West 460 529 40,000  Level Miami Center
Wed 03:19:58 PM 25.7008 -78.3464 303° West 460 529 40,000  Level Miami Center
Wed 03:20:58 PM 25.7706 -78.4672 303° West 460 529 40,000  Level Miami Center
Wed 03:21:58 PM 25.8361 -78.5881 301° West 460 529 40,000  Level Miami Center
Wed 03:22:58 PM 25.9056 -78.7092 303° West 460 529 40,000  Level Miami Center
Wed 03:23:58 PM 25.9731 -78.8306 302° West 460 529 40,000  Level Miami Center
Wed 03:24:58 PM 26.0383 -78.9378 304° West 460 529 40,000  Level Miami Center
Wed 03:25:58 PM 26.1097 -79.0617 303° West 460 529 40,000 100 Level Miami Center
Wed 03:26:58 PM 26.1789 -79.1811 303° West 460 529 40,200 400 Climbing Miami Center
Wed 03:27:58 PM 26.2439 -79.3006 301° West 460 529 40,800 400 Climbing Miami Center
Wed 03:28:58 PM 26.3147 -79.4272 302° West 453 521 41,000 100 Climbing Miami Center
Wed 03:29:58 PM 26.3814 -79.5492 301° West 448 516 41,000  Level Miami Center
Wed 03:30:58 PM 26.4481 -79.6667 302° West 454 522 41,000  Level Miami Center
Wed 03:31:58 PM 26.5147 -79.7867 302° West 454 522 41,000  Level Miami Center
Wed 03:32:58 PM 26.5811 -79.9069 302° West 454 522 41,000  Level Miami Center
Wed 03:33:58 PM 26.6475 -80.0269 302° West 454 522 41,000  Level Miami Center
Wed 03:34:58 PM 26.7264 -80.1408 308° West 459 528 41,000  Level Miami Center
Wed 03:35:58 PM 26.8203 -80.2389 317° Northwest 459 528 41,000  Level Miami Center
Wed 03:36:58 PM 26.9139 -80.3394 316° Northwest 459 528 41,000  Level Miami Center
Wed 03:37:58 PM 27.0097 -80.4425 316° Northwest 465 535 41,000  Level Miami Center
Wed 03:38:58 PM 27.1053 -80.5411 317° Northwest 470 541 41,000  Level Miami Center
Wed 03:39:58 PM 27.2028 -80.6447 317° Northwest 470 541 41,000  Level Miami Center
Wed 03:40:58 PM 27.3003 -80.7483 317° Northwest 470 541 41,000  Level Miami Center
Wed 03:41:58 PM 27.3997 -80.8522 317° Northwest 480 552 41,000  Level Miami Center
Wed 03:42:58 PM 27.4972 -80.9539 317° Northwest 486 559 41,000  Level Miami Center
Wed 03:43:58 PM 27.5964 -81.0606 316° Northwest 486 559 41,000  Level Miami Center
Wed 03:44:58 PM 27.6811 -81.1597 314° West 492 566 41,000  Level Miami Center
Wed 03:45:58 PM 27.7822 -81.2667 317° Northwest 492 566 41,000  Level Miami Center
Wed 03:46:58 PM 27.8833 -81.3717 317° Northwest 492 566 41,000  Level Miami Center
Wed 03:47:58 PM 27.9781 -81.4789 315° West 487 560 41,000  Level Miami Center
Wed 03:48:58 PM 28.0769 -81.5842 317° Northwest 492 566 41,000 269 Level Miami Center
Wed 03:50:34 PM 28.2367 -81.7500 318° Northwest 502 578 41,700 692 Climbing Jacksonville Center
Wed 03:51:34 PM 28.3272 -81.8528 315° West 482 555 42,800 650 Climbing Jacksonville Center
Wed 03:52:34 PM 28.4200 -81.9578 315° West 470 541 43,000 100 Climbing Jacksonville Center
Wed 03:53:34 PM 28.5144 -82.0586 317° Northwest 465 535 43,000  Level Jacksonville Center
Wed 03:54:34 PM 28.6047 -82.1594 316° Northwest 459 528 43,000  Level Jacksonville Center
Wed 03:55:34 PM 28.6992 -82.2606 317° Northwest 459 528 43,000  Level Jacksonville Center
Wed 03:56:34 PM 28.7894 -82.3619 315° West 459 528 43,000  Level Jacksonville Center
Wed 03:57:34 PM 28.8797 -82.4633 315° West 454 522 43,000  Level Jacksonville Center
Wed 03:58:34 PM 28.9717 -82.5675 315° West 459 528 43,000  Level Jacksonville Center
Wed 03:59:34 PM 29.0681 -82.6717 317° Northwest 459 528 43,000  Level Jacksonville Center
Wed 04:01:34 PM 29.2519 -82.8806 315° West 459 528 43,000  Level Jacksonville Center
Wed 04:02:34 PM 29.3436 -82.9856 315° West 459 528 43,000  Level Jacksonville Center
Wed 04:03:34 PM 29.4356 -83.0928 315° West 459 528 43,000  Level Jacksonville Center
Wed 04:04:34 PM 29.5333 -83.1981 317° Northwest 466 536 43,000  Level Jacksonville Center
Wed 04:05:34 PM 29.6228 -83.3036 314° West 461 531 43,000  Level Jacksonville Center
Wed 04:06:34 PM 29.7247 -83.4211 315° West 461 531 43,000  Level Jacksonville Center
Wed 04:07:34 PM 29.8203 -83.5269 316° Northwest 461 531 43,000  Level Jacksonville Center
Wed 04:08:34 PM 29.9117 -83.6306 316° Northwest 461 531 43,000  Level Jacksonville Center
Wed 04:09:34 PM 30.0047 -83.7392 315° West 461 531 43,000  Level Jacksonville Center
Wed 04:10:34 PM 30.0981 -83.8458 315° West 461 531 43,000  Level Jacksonville Center
Wed 04:11:34 PM 30.1931 -83.9572 315° West 461 531 43,000  Level Jacksonville Center
Wed 04:12:34 PM 30.2883 -84.0642 316° Northwest 466 536 43,000  Level Jacksonville Center
Wed 04:13:34 PM 30.3811 -84.1736 315° West 471 542 43,000  Level Jacksonville Center
Wed 04:14:34 PM 30.4803 -84.2833 316° Northwest 471 542 43,000  Level Jacksonville Center
Wed 04:15:34 PM 30.5728 -84.3981 313° West 476 548 43,000  Level Jacksonville Center
Wed 04:16:34 PM 30.6697 -84.5036 317° Northwest 482 555 43,000  Level Jacksonville Center
Wed 04:17:34 PM 30.7686 -84.6164 316° Northwest 487 560 43,000  Level Jacksonville Center
Wed 04:18:34 PM 30.8650 -84.7319 314° West 492 566 43,000  Level Jacksonville Center
Wed 04:19:34 PM 30.9614 -84.8403 316° Northwest 486 559 43,000  Level Jacksonville Center
Wed 04:20:34 PM 31.0581 -84.9492 316° Northwest 486 559 43,000  Level Jacksonville Center
Wed 04:23:00 PM 31.2903 -85.2222 315° West 488 562 43,000  Level Atlanta Center
Wed 04:24:00 PM 31.3872 -85.3353 315° West 487 560 43,000  Level Atlanta Center
Wed 04:25:00 PM 31.4758 -85.4342 316° Northwest 487 560 43,000  Level Atlanta Center
Wed 04:26:00 PM 31.5683 -85.5475 314° West 487 560 43,000  Level Atlanta Center
Wed 04:27:00 PM 31.6672 -85.6614 316° Northwest 487 560 43,000  Level Atlanta Center
Wed 04:28:00 PM 31.7697 -85.7878 314° West 495 570 43,000  Level Atlanta Center
Wed 04:29:00 PM 31.8683 -85.9047 315° West 495 570 43,000  Level Atlanta Center
Wed 04:30:00 PM 31.9686 -86.0194 316° Northwest 495 570 43,000  Level Atlanta Center
Wed 04:31:00 PM 32.0464 -86.1192 313° West 486 559 43,000  Level Atlanta Center
Wed 04:32:00 PM 32.1569 -86.2369 318° Northwest 498 573 43,000  Level Atlanta Center
Wed 04:33:00 PM 32.2422 -86.3742 306° West 487 560 43,000  Level Atlanta Center
Wed 04:34:00 PM 32.2917 -86.5081 294° West 487 560 43,000  Level Atlanta Center
Wed 04:35:00 PM 32.3389 -86.6569 291° West 481 554 43,000  Level Atlanta Center
Wed 04:36:00 PM 32.3539 -86.8222 276° West 466 536 43,000  Level Atlanta Center
Wed 04:37:00 PM 32.3628 -86.9797 274° West 471 542 43,000  Level Atlanta Center
Wed 04:38:00 PM 32.3717 -87.1300 274° West 471 542 43,000  Level Atlanta Center
Wed 04:39:00 PM 32.3781 -87.2853 273° West 471 542 43,000  Level Atlanta Center
Wed 04:40:00 PM 32.3758 -87.4425 269° West 471 542 43,000  Level Atlanta Center
Wed 04:42:08 PM 32.3544 -87.7531 265° West 465 535 43,000  Level Memphis Center
Wed 04:43:08 PM 32.3450 -87.9083 266° West 465 535 43,000  Level Memphis Center
Wed 04:44:08 PM 32.3375 -88.0608 267° West 465 535 43,000  Level Memphis Center
Wed 04:45:08 PM 32.3300 -88.2208 267° West 475 547 43,000  Level Memphis Center
Wed 04:46:08 PM 32.3200 -88.3761 266° West 475 547 43,000  Level Memphis Center
Wed 04:47:08 PM 32.3139 -88.5286 267° West 480 552 43,000  Level Memphis Center
Wed 04:48:08 PM 32.3056 -88.6811 266° West 480 552 43,000 350 Level Memphis Center
Wed 04:49:08 PM 32.2953 -88.8361 266° West 480 552 43,700 850 Climbing Memphis Center
Wed 04:50:08 PM 32.3053 -88.9833 275° West 474 545 44,700 650 Climbing Memphis Center
Wed 04:51:08 PM 32.3756 -89.1150 302° West 454 522 45,000 150 Climbing Memphis Center
Wed 04:52:08 PM 32.4539 -89.2397 307° West 454 522 45,000  Level Memphis Center
Wed 04:53:08 PM 32.5322 -89.3667 306° West 468 539 45,000  Level Memphis Center
Wed 04:54:08 PM 32.6106 -89.4967 306° West 479 551 45,000  Level Memphis Center
Wed 04:55:08 PM 32.6864 -89.6242 305° West 484 557 45,000  Level Memphis Center
Wed 04:56:08 PM 32.7644 -89.7519 306° West 484 557 45,000  Level Memphis Center
Wed 04:57:08 PM 32.8506 -89.8947 306° West 489 563 45,000  Level Memphis Center
Wed 04:58:08 PM 32.9325 -90.0331 305° West 505 581 45,000  Level Memphis Center
Wed 04:59:08 PM 33.0142 -90.1639 307° West 505 581 45,000  Level Memphis Center
Wed 05:00:08 PM 33.0872 -90.2853 306° West 483 556 45,000  Level Memphis Center
Wed 05:01:08 PM 33.1603 -90.4094 305° West 469 540 45,000 100 Level Memphis Center
Wed 05:02:08 PM 33.2333 -90.5311 306° West 464 534 45,200 250 Climbing Memphis Center
Wed 05:03:08 PM 33.3061 -90.6556 305° West 459 528 45,500 150 Climbing Memphis Center
Wed 05:04:08 PM 33.3747 -90.7703 306° West 469 540 45,500 50 Level Memphis Center
Wed 05:05:08 PM 33.4514 -90.8975 306° West 469 540 45,600 50 Climbing Memphis Center
Wed 05:06:08 PM 33.5261 -91.0250 305° West 469 540 45,600  Level Memphis Center
Wed 05:07:08 PM 33.6006 -91.1553 304° West 474 545 45,600 50 Level Memphis Center
Wed 05:08:08 PM 33.6767 -91.2783 307° West 474 545 45,700 50 Climbing Memphis Center
Wed 05:09:08 PM 33.7508 -91.4089 304° West 474 545 45,700 -50 Level Memphis Center
Wed 05:10:08 PM 33.8311 -91.5500 304° West 474 545 45,600 -50 Descending Memphis Center
Wed 05:11:08 PM 33.9069 -91.6836 304° West 474 545 45,600 -50 Level Memphis Center
Wed 05:12:08 PM 33.9850 -91.8000 309° West 479 551 45,500 -100 Descending Memphis Center
Wed 05:13:08 PM 34.0544 -91.9292 303° West 479 551 45,400 -100 Descending Memphis Center
Wed 05:14:08 PM 34.1361 -92.0711 305° West 473 544 45,300 -150 Descending Memphis Center
Wed 05:15:08 PM 34.2050 -92.2006 303° West 473 544 45,100 -100 Descending Memphis Center
Wed 05:16:08 PM 34.2825 -92.3331 305° West 473 544 45,100 -50 Level Memphis Center
Wed 05:17:08 PM 34.3553 -92.4631 304° West 473 544 45,000 -50 Descending Memphis Center
Wed 05:18:09 PM 34.4283 -92.5931 304° West 473 544 45,000  Level Memphis Center
Wed 05:19:08 PM 34.5031 -92.7261 304° West 473 544 45,000  Level Memphis Center
Wed 05:20:08 PM 34.5733 -92.8567 303° West 468 539 45,000  Level Memphis Center
Wed 05:21:08 PM 34.6481 -92.9853 305° West 474 545 45,000  Level Memphis Center
Wed 05:22:08 PM 34.7183 -93.1136 304° West 468 539 45,000  Level Memphis Center
Wed 05:23:08 PM 34.7903 -93.2475 303° West 468 539 45,000  Level Memphis Center
Wed 05:24:09 PM 34.8644 -93.3792 304° West 473 544 45,000  Level Memphis Center
Wed 05:25:08 PM 34.9364 -93.5108 304° West 473 544 45,000  Level Memphis Center
Wed 05:26:08 PM 35.0100 -93.6453 304° West 473 544 45,000  Level Memphis Center
Wed 05:27:08 PM 35.0817 -93.7750 304° West 473 544 45,000 -950 Level Memphis Center
Wed 05:28:08 PM 35.1531 -93.9075 303° West 473 544 43,100 -2,650 Descending Memphis Center
Wed 05:29:08 PM 35.2244 -94.0375 304° West 473 544 39,700 -3,400 Descending Memphis Center
Wed 05:30:08 PM 35.2956 -94.1653 304° West 462 532 36,300 -3,250 Descending Memphis Center
Wed 05:31:08 PM 35.3603 -94.2956 301° West 462 532 33,200 -2,550 Descending Memphis Center
Wed 05:32:08 PM 35.4353 -94.4342 304° West 468 539 31,200 -2,550 Descending Memphis Center
Wed 05:33:08 PM 35.5117 -94.5756 304° West 488 562 28,100 -2,700 Descending Memphis Center
Wed 05:34:08 PM 35.5806 -94.7017 304° West 476 548 25,800 -2,000 Descending Memphis Center
Wed 05:35:08 PM 35.6311 -94.8014 302° West 439 505 24,100 -1,500 Descending Memphis Center
Wed 05:36:08 PM 35.6917 -94.9169 303° West 408 470 22,800 -1,465 Descending Memphis Center
Wed 05:37:15 PM 35.7639 -95.0525 303° West 415 478 21,000 -1,209 Descending Kansas City Center
Wed 05:38:17 PM 35.8219 -95.1611 303° West 388 447 20,200 -1,887 Descending Kansas City Center
Wed 05:39:19 PM 35.8739 -95.2606 303° West 356 410 17,100 -3,260 Descending Kansas City Center
Wed 05:40:24 PM 35.9403 -95.3728 306° West 334 384 13,300 -3,100 Descending Kansas City Center
Wed 05:41:19 PM 35.9928 -95.4431 313° West 324 373 10,900 -2,504 Descending Kansas City Center
Wed 05:42:19 PM 36.0569 -95.5042 322° Northwest 259 298 8,500 -2,281 Descending Kansas City Center
Wed 05:43:20 PM 36.1161 -95.5556 325° Northwest 255 293 6,300 -1,924 Descending Kansas City Center
Wed 05:44:30 PM 36.1692 -95.6208 315° West 262 302 4,300 -1,591 Descending Kansas City Center
Wed 05:45:32 PM 36.1772 -95.7075 277° West 257 296 2,800 -1,017 Descending Kansas City Center
Wed 05:46:28 PM 36.1878 -95.7764 281° West 198 228 2,300 -672 Descending Kansas City Center
Wed 05:47:28 PM 36.1947 -95.8325 279° West 133 153 1,500 -692 Descending Kansas City Center
Wed 05:48:38 PM 36.1964 -95.8736 273° West 150 173 800 -600 Descending Kansas City Center

Login

Don't have an account? Register now (free) for customized features, flight alerts, and more!